Aeroporto :
LOGIN :

Iscrizione | Disclaimer

   EN    FR    IT 

 










Sommario :    VFR   VFR Marginale   IFR   IFR Intensivo   IFR Molto Intensivo
Visibilità : 
Base nubi : 
>= 8 km
>= 3000ft
5 / 8 km
1000 / 3000 ft
1500m / 5 km
500 / 1000 ft
800 / 1500m
200 / 500 ft
< 800m
< 200 ft
Simboli :   Temporali  Nebbia  Neve Forte  Precipitazioni Forti  Vento > 20 kt
SIGMETs :   Varie  Temporali  Ghiacco  Turbolenza  Onda orograficha  Ceneri Vulcaniche






- Altitudine del aeroporto : 3 ft
- Codice IATA : LWR


EHLW - Leuuwarden Air Base

ULTIMO METAR :
  • 191908Z AUTO 33007KT 290V350 9999 SCT019 04/04 Q1044 WHT

METARs OBSOLETI :
  • 191855Z AUTO 33007KT 290V360 9999 FEW016 SCT020 04/04 Q1044 WHT
  • 191832Z AUTO 32007KT 290V350 9999 FEW017 04/04 Q1044 BLU
  • 191825Z AUTO 32006KT 9999 SCT015 BKN019 BKN023 05/04 Q1044 WHT
  • 191818Z AUTO 32006KT 9999 SCT017 04/03 Q1044 WHT
  • 191755Z AUTO 34006KT 300V360 9999 FEW018 OVC240 05/04 Q1043 BLU
  • 191732Z AUTO 33008KT 300V360 9999 FEW016 SCT024 BKN034 05/04 Q1043 WHT
  • 191729Z AUTO 33008KT 300V360 9999 FEW016 SCT025 BKN029 05/04 Q1043 BLU
  • 191655Z AUTO 34006KT 9999 FEW017 SCT022 BKN025 05/04 Q1043 WHT
  • 191625Z AUTO 33006KT 290V350 9999 BKN018 BKN021 05/04 Q1042 WHT

TAF TAF EHLW
Valido dal 19 a 18 ore il 20 a 06 ore UTC


191710Z 1918/2006 34005KT 9999 FEW018
BECMG 1921/1924 27004KT 4500 BR
PROB30
TEMPO 2001/2006 2000



MetMap, La meteo Aeronautica in un colpo d'occhio ! - Copyright ORBIFLY Dicembre 2007 - Disclaimer

ORBIFLY MET'MAP TEAM :

Programmazione e sviluppo : Alexandra Zaïnal
Concezione : Baudouin d'Aumeries
Aiuto per la programmazione : Marc-Olivier Méhu
Supporto tecnico e logistico : Manuel Goepfert
Aiuto per la traduzione : Arnaldo La Scala

Contatto : metmap@orbifly.com




FONTI E CREDITI :

   NOAA